sensor_id;sensor_type;location;lat;lon;timestamp;P1;durP1;ratioP1;P2;durP2;ratioP2
12308;SDS011;6217;48.150;17.142;2022-10-17T00:02:26;11.38;;;8.40;;
12308;SDS011;6217;48.150;17.142;2022-10-17T00:06:32;11.50;;;7.78;;
12308;SDS011;6217;48.150;17.142;2022-10-17T00:10:38;15.20;;;8.98;;
12308;SDS011;6217;48.150;17.142;2022-10-17T00:14:44;9.75;;;7.90;;
12308;SDS011;6217;48.150;17.142;2022-10-17T00:18:50;11.45;;;8.38;;
12308;SDS011;6217;48.150;17.142;2022-10-17T00:22:56;11.05;;;8.07;;
12308;SDS011;6217;48.150;17.142;2022-10-17T00:27:02;11.90;;;7.78;;
12308;SDS011;6217;48.150;17.142;2022-10-17T00:31:08;9.52;;;8.07;;
12308;SDS011;6217;48.150;17.142;2022-10-17T00:35:14;12.48;;;8.20;;
12308;SDS011;6217;48.150;17.142;2022-10-17T00:39:20;8.65;;;7.47;;
12308;SDS011;6217;48.150;17.142;2022-10-17T00:43:26;9.65;;;8.50;;
12308;SDS011;6217;48.150;17.142;2022-10-17T00:47:34;16.05;;;8.27;;
12308;SDS011;6217;48.150;17.142;2022-10-17T00:51:44;10.68;;;7.60;;
12308;SDS011;6217;48.150;17.142;2022-10-17T00:55:53;13.98;;;7.25;;
12308;SDS011;6217;48.150;17.142;2022-10-17T01:00:00;11.90;;;8.52;;
12308;SDS011;6217;48.150;17.142;2022-10-17T01:04:09;13.52;;;8.43;;
12308;SDS011;6217;48.150;17.142;2022-10-17T01:08:18;11.30;;;7.78;;
12308;SDS011;6217;48.150;17.142;2022-10-17T01:31:15;11.27;;;8.77;;
12308;SDS011;6217;48.150;17.142;2022-10-17T01:35:26;9.32;;;7.95;;
12308;SDS011;6217;48.150;17.142;2022-10-17T01:39:51;12.15;;;8.88;;
12308;SDS011;6217;48.150;17.142;2022-10-17T01:44:02;23.00;;;9.15;;
12308;SDS011;6217;48.150;17.142;2022-10-17T01:48:21;9.88;;;7.10;;
12308;SDS011;6217;48.150;17.142;2022-10-17T01:52:37;14.50;;;8.70;;
12308;SDS011;6217;48.150;17.142;2022-10-17T01:56:51;11.90;;;8.43;;
12308;SDS011;6217;48.150;17.142;2022-10-17T02:01:04;9.38;;;8.40;;
12308;SDS011;6217;48.150;17.142;2022-10-17T02:05:15;11.07;;;8.60;;
12308;SDS011;6217;48.150;17.142;2022-10-17T02:09:27;12.27;;;8.65;;
12308;SDS011;6217;48.150;17.142;2022-10-17T02:22:39;13.95;;;8.45;;
12308;SDS011;6217;48.150;17.142;2022-10-17T02:27:56;11.93;;;8.23;;
12308;SDS011;6217;48.150;17.142;2022-10-17T02:31:59;11.63;;;8.90;;
12308;SDS011;6217;48.150;17.142;2022-10-17T02:36:13;10.15;;;8.52;;
12308;SDS011;6217;48.150;17.142;2022-10-17T02:40:24;11.50;;;8.40;;
12308;SDS011;6217;48.150;17.142;2022-10-17T02:44:35;10.35;;;8.10;;
12308;SDS011;6217;48.150;17.142;2022-10-17T02:48:46;11.65;;;7.88;;
12308;SDS011;6217;48.150;17.142;2022-10-17T02:53:02;13.43;;;7.80;;
12308;SDS011;6217;48.150;17.142;2022-10-17T02:57:36;10.82;;;7.88;;
12308;SDS011;6217;48.150;17.142;2022-10-17T03:02:07;11.75;;;7.40;;
12308;SDS011;6217;48.150;17.142;2022-10-17T03:06:27;16.85;;;9.00;;
12308;SDS011;6217;48.150;17.142;2022-10-17T03:10:49;11.40;;;8.45;;
12308;SDS011;6217;48.150;17.142;2022-10-17T03:15:11;10.68;;;6.95;;
12308;SDS011;6217;48.150;17.142;2022-10-17T03:19:33;10.73;;;7.97;;
12308;SDS011;6217;48.150;17.142;2022-10-17T03:23:54;13.23;;;8.93;;
12308;SDS011;6217;48.150;17.142;2022-10-17T03:28:17;15.50;;;8.88;;
12308;SDS011;6217;48.150;17.142;2022-10-17T03:32:38;15.45;;;8.02;;
12308;SDS011;6217;48.150;17.142;2022-10-17T03:36:59;14.32;;;9.02;;
12308;SDS011;6217;48.150;17.142;2022-10-17T03:41:22;9.35;;;8.10;;
12308;SDS011;6217;48.150;17.142;2022-10-17T03:50:04;9.77;;;7.55;;
12308;SDS011;6217;48.150;17.142;2022-10-17T03:54:29;14.10;;;9.65;;
12308;SDS011;6217;48.150;17.142;2022-10-17T03:58:50;11.30;;;8.43;;
12308;SDS011;6217;48.150;17.142;2022-10-17T04:03:11;14.70;;;9.43;;
12308;SDS011;6217;48.150;17.142;2022-10-17T04:07:32;14.15;;;8.45;;
12308;SDS011;6217;48.150;17.142;2022-10-17T04:11:57;12.15;;;8.32;;
12308;SDS011;6217;48.150;17.142;2022-10-17T04:16:18;8.38;;;7.47;;
12308;SDS011;6217;48.150;17.142;2022-10-17T04:20:51;10.93;;;8.77;;
12308;SDS011;6217;48.150;17.142;2022-10-17T04:25:13;17.65;;;8.65;;
12308;SDS011;6217;48.150;17.142;2022-10-17T04:29:38;12.77;;;8.35;;
12308;SDS011;6217;48.150;17.142;2022-10-17T04:34:04;12.68;;;8.52;;
12308;SDS011;6217;48.150;17.142;2022-10-17T04:38:26;15.95;;;9.10;;
12308;SDS011;6217;48.150;17.142;2022-10-17T04:42:48;11.63;;;7.90;;
12308;SDS011;6217;48.150;17.142;2022-10-17T04:47:13;13.00;;;8.90;;
12308;SDS011;6217;48.150;17.142;2022-10-17T04:56:12;12.73;;;8.07;;
12308;SDS011;6217;48.150;17.142;2022-10-17T05:00:43;9.70;;;8.52;;
12308;SDS011;6217;48.150;17.142;2022-10-17T05:05:11;13.27;;;9.13;;
12308;SDS011;6217;48.150;17.142;2022-10-17T05:09:36;8.05;;;7.22;;
12308;SDS011;6217;48.150;17.142;2022-10-17T05:14:01;10.43;;;8.50;;
12308;SDS011;6217;48.150;17.142;2022-10-17T05:18:28;12.85;;;7.63;;
12308;SDS011;6217;48.150;17.142;2022-10-17T05:22:53;15.95;;;8.60;;
12308;SDS011;6217;48.150;17.142;2022-10-17T05:27:18;16.65;;;9.93;;
12308;SDS011;6217;48.150;17.142;2022-10-17T05:31:42;11.40;;;9.85;;
12308;SDS011;6217;48.150;17.142;2022-10-17T05:36:07;14.32;;;9.63;;
12308;SDS011;6217;48.150;17.142;2022-10-17T05:40:32;24.23;;;10.02;;
12308;SDS011;6217;48.150;17.142;2022-10-17T05:44:56;12.90;;;8.40;;
12308;SDS011;6217;48.150;17.142;2022-10-17T05:49:22;12.50;;;8.25;;
12308;SDS011;6217;48.150;17.142;2022-10-17T05:53:47;14.60;;;8.35;;
12308;SDS011;6217;48.150;17.142;2022-10-17T05:58:18;17.48;;;8.00;;
12308;SDS011;6217;48.150;17.142;2022-10-17T06:02:47;18.33;;;8.77;;
12308;SDS011;6217;48.150;17.142;2022-10-17T06:07:14;9.45;;;7.78;;
12308;SDS011;6217;48.150;17.142;2022-10-17T06:11:41;9.93;;;8.20;;
12308;SDS011;6217;48.150;17.142;2022-10-17T06:16:06;14.48;;;8.73;;
12308;SDS011;6217;48.150;17.142;2022-10-17T06:20:31;12.38;;;7.80;;
12308;SDS011;6217;48.150;17.142;2022-10-17T06:24:56;11.98;;;7.38;;
12308;SDS011;6217;48.150;17.142;2022-10-17T06:29:21;10.05;;;8.98;;
12308;SDS011;6217;48.150;17.142;2022-10-17T06:33:48;10.35;;;6.47;;
12308;SDS011;6217;48.150;17.142;2022-10-17T06:38:13;13.35;;;8.13;;
12308;SDS011;6217;48.150;17.142;2022-10-17T06:42:38;13.32;;;7.95;;
12308;SDS011;6217;48.150;17.142;2022-10-17T06:47:10;10.40;;;7.55;;
12308;SDS011;6217;48.150;17.142;2022-10-17T06:51:36;14.30;;;8.38;;
12308;SDS011;6217;48.150;17.142;2022-10-17T06:56:04;11.23;;;7.32;;
12308;SDS011;6217;48.150;17.142;2022-10-17T07:00:42;11.90;;;7.93;;
12308;SDS011;6217;48.150;17.142;2022-10-17T07:05:09;8.35;;;6.15;;
12308;SDS011;6217;48.150;17.142;2022-10-17T07:09:33;7.88;;;6.65;;
12308;SDS011;6217;48.150;17.142;2022-10-17T07:13:58;7.05;;;6.32;;
12308;SDS011;6217;48.150;17.142;2022-10-17T07:18:23;10.73;;;7.50;;
12308;SDS011;6217;48.150;17.142;2022-10-17T07:22:47;11.35;;;7.90;;
12308;SDS011;6217;48.150;17.142;2022-10-17T07:27:12;10.23;;;7.00;;
12308;SDS011;6217;48.150;17.142;2022-10-17T07:31:38;10.15;;;7.53;;
12308;SDS011;6217;48.150;17.142;2022-10-17T07:36:03;10.38;;;6.72;;
12308;SDS011;6217;48.150;17.142;2022-10-17T07:40:28;10.20;;;7.13;;
12308;SDS011;6217;48.150;17.142;2022-10-17T07:44:54;10.40;;;7.35;;
12308;SDS011;6217;48.150;17.142;2022-10-17T07:49:20;8.95;;;7.57;;
12308;SDS011;6217;48.150;17.142;2022-10-17T07:53:44;8.57;;;7.65;;
12308;SDS011;6217;48.150;17.142;2022-10-17T07:58:08;15.25;;;7.38;;
12308;SDS011;6217;48.150;17.142;2022-10-17T08:02:33;16.58;;;7.28;;
12308;SDS011;6217;48.150;17.142;2022-10-17T08:06:58;11.60;;;7.57;;
12308;SDS011;6217;48.150;17.142;2022-10-17T08:11:23;8.32;;;6.60;;
12308;SDS011;6217;48.150;17.142;2022-10-17T08:15:48;14.95;;;7.45;;
12308;SDS011;6217;48.150;17.142;2022-10-17T08:20:12;12.20;;;8.68;;
12308;SDS011;6217;48.150;17.142;2022-10-17T08:24:37;14.27;;;8.50;;
12308;SDS011;6217;48.150;17.142;2022-10-17T08:29:01;13.38;;;7.93;;
12308;SDS011;6217;48.150;17.142;2022-10-17T08:33:26;11.02;;;7.97;;
12308;SDS011;6217;48.150;17.142;2022-10-17T08:37:50;15.63;;;8.48;;
12308;SDS011;6217;48.150;17.142;2022-10-17T08:52:10;9.02;;;6.90;;
12308;SDS011;6217;48.150;17.142;2022-10-17T08:56:46;11.23;;;8.27;;
12308;SDS011;6217;48.150;17.142;2022-10-17T09:01:24;9.98;;;8.15;;
12308;SDS011;6217;48.150;17.142;2022-10-17T09:06:30;13.30;;;8.90;;
12308;SDS011;6217;48.150;17.142;2022-10-17T09:11:05;10.95;;;7.10;;
12308;SDS011;6217;48.150;17.142;2022-10-17T09:20:47;11.80;;;7.60;;
12308;SDS011;6217;48.150;17.142;2022-10-17T09:25:23;13.95;;;8.10;;
12308;SDS011;6217;48.150;17.142;2022-10-17T09:29:49;11.80;;;7.55;;
12308;SDS011;6217;48.150;17.142;2022-10-17T09:34:30;12.07;;;6.65;;
12308;SDS011;6217;48.150;17.142;2022-10-17T09:38:56;11.40;;;7.00;;
12308;SDS011;6217;48.150;17.142;2022-10-17T09:43:23;8.20;;;7.28;;
12308;SDS011;6217;48.150;17.142;2022-10-17T09:47:50;10.25;;;7.78;;
12308;SDS011;6217;48.150;17.142;2022-10-17T09:52:34;11.15;;;6.55;;
12308;SDS011;6217;48.150;17.142;2022-10-17T09:57:07;15.30;;;6.10;;
12308;SDS011;6217;48.150;17.142;2022-10-17T10:01:33;11.77;;;6.50;;
12308;SDS011;6217;48.150;17.142;2022-10-17T10:06:03;10.85;;;7.95;;
12308;SDS011;6217;48.150;17.142;2022-10-17T10:10:39;8.00;;;6.07;;
12308;SDS011;6217;48.150;17.142;2022-10-17T10:19:56;10.60;;;7.20;;
12308;SDS011;6217;48.150;17.142;2022-10-17T10:24:21;9.82;;;6.75;;
12308;SDS011;6217;48.150;17.142;2022-10-17T10:33:24;10.40;;;5.95;;
12308;SDS011;6217;48.150;17.142;2022-10-17T10:37:52;12.23;;;7.90;;
12308;SDS011;6217;48.150;17.142;2022-10-17T10:42:29;10.85;;;7.55;;
12308;SDS011;6217;48.150;17.142;2022-10-17T10:47:07;11.45;;;6.95;;
12308;SDS011;6217;48.150;17.142;2022-10-17T10:51:46;12.63;;;6.28;;
12308;SDS011;6217;48.150;17.142;2022-10-17T10:56:20;13.88;;;6.72;;
12308;SDS011;6217;48.150;17.142;2022-10-17T11:00:58;11.18;;;7.43;;
12308;SDS011;6217;48.150;17.142;2022-10-17T11:19:27;8.77;;;6.13;;
12308;SDS011;6217;48.150;17.142;2022-10-17T11:24:33;10.35;;;6.65;;
12308;SDS011;6217;48.150;17.142;2022-10-17T11:29:05;12.70;;;6.50;;
12308;SDS011;6217;48.150;17.142;2022-10-17T11:33:45;12.00;;;6.72;;
12308;SDS011;6217;48.150;17.142;2022-10-17T11:42:36;11.55;;;6.38;;
12308;SDS011;6217;48.150;17.142;2022-10-17T11:47:00;13.48;;;7.07;;
12308;SDS011;6217;48.150;17.142;2022-10-17T11:51:12;9.68;;;6.65;;
12308;SDS011;6217;48.150;17.142;2022-10-17T11:55:20;7.07;;;5.97;;
12308;SDS011;6217;48.150;17.142;2022-10-17T12:08:53;10.90;;;6.65;;
12308;SDS011;6217;48.150;17.142;2022-10-17T12:17:43;7.55;;;6.22;;
12308;SDS011;6217;48.150;17.142;2022-10-17T12:21:59;9.15;;;5.38;;
12308;SDS011;6217;48.150;17.142;2022-10-17T12:26:08;9.90;;;5.45;;
12308;SDS011;6217;48.150;17.142;2022-10-17T12:30:22;11.27;;;5.22;;
12308;SDS011;6217;48.150;17.142;2022-10-17T12:34:30;7.00;;;5.82;;
12308;SDS011;6217;48.150;17.142;2022-10-17T12:38:36;6.07;;;5.47;;
12308;SDS011;6217;48.150;17.142;2022-10-17T12:42:45;11.57;;;4.60;;
12308;SDS011;6217;48.150;17.142;2022-10-17T12:47:54;8.48;;;5.20;;
12308;SDS011;6217;48.150;17.142;2022-10-17T12:52:04;5.97;;;4.13;;
12308;SDS011;6217;48.150;17.142;2022-10-17T12:56:19;5.00;;;3.65;;
12308;SDS011;6217;48.150;17.142;2022-10-17T13:05:07;4.80;;;3.22;;
12308;SDS011;6217;48.150;17.142;2022-10-17T13:17:59;7.15;;;3.58;;
12308;SDS011;6217;48.150;17.142;2022-10-17T13:22:10;3.60;;;3.05;;
12308;SDS011;6217;48.150;17.142;2022-10-17T13:26:43;6.07;;;4.50;;
12308;SDS011;6217;48.150;17.142;2022-10-17T13:30:49;8.70;;;3.55;;
12308;SDS011;6217;48.150;17.142;2022-10-17T13:35:09;5.22;;;4.15;;
12308;SDS011;6217;48.150;17.142;2022-10-17T13:39:18;6.10;;;3.50;;
12308;SDS011;6217;48.150;17.142;2022-10-17T13:43:27;6.80;;;3.42;;
12308;SDS011;6217;48.150;17.142;2022-10-17T13:47:35;6.22;;;3.33;;
12308;SDS011;6217;48.150;17.142;2022-10-17T13:51:44;4.63;;;3.08;;
12308;SDS011;6217;48.150;17.142;2022-10-17T13:55:54;8.82;;;4.05;;
12308;SDS011;6217;48.150;17.142;2022-10-17T14:00:23;5.13;;;3.47;;
12308;SDS011;6217;48.150;17.142;2022-10-17T14:04:29;7.30;;;3.83;;
12308;SDS011;6217;48.150;17.142;2022-10-17T14:08:35;6.43;;;3.67;;
12308;SDS011;6217;48.150;17.142;2022-10-17T14:12:43;13.85;;;4.07;;
12308;SDS011;6217;48.150;17.142;2022-10-17T14:16:49;6.53;;;3.33;;
12308;SDS011;6217;48.150;17.142;2022-10-17T14:20:55;5.25;;;3.45;;
12308;SDS011;6217;48.150;17.142;2022-10-17T14:25:02;5.43;;;3.97;;
12308;SDS011;6217;48.150;17.142;2022-10-17T14:29:25;5.93;;;3.63;;
12308;SDS011;6217;48.150;17.142;2022-10-17T14:33:36;3.83;;;3.42;;
12308;SDS011;6217;48.150;17.142;2022-10-17T14:37:46;9.30;;;3.38;;
12308;SDS011;6217;48.150;17.142;2022-10-17T14:41:55;5.05;;;3.90;;
12308;SDS011;6217;48.150;17.142;2022-10-17T14:46:01;10.13;;;4.10;;
12308;SDS011;6217;48.150;17.142;2022-10-17T14:58:34;4.45;;;4.03;;
12308;SDS011;6217;48.150;17.142;2022-10-17T15:02:40;5.88;;;4.10;;
12308;SDS011;6217;48.150;17.142;2022-10-17T15:06:46;5.32;;;4.15;;
12308;SDS011;6217;48.150;17.142;2022-10-17T15:10:58;6.20;;;4.07;;
12308;SDS011;6217;48.150;17.142;2022-10-17T15:15:04;6.60;;;3.67;;
12308;SDS011;6217;48.150;17.142;2022-10-17T15:19:11;10.10;;;5.03;;
12308;SDS011;6217;48.150;17.142;2022-10-17T15:23:18;6.05;;;4.45;;
12308;SDS011;6217;48.150;17.142;2022-10-17T15:27:24;9.02;;;4.03;;
12308;SDS011;6217;48.150;17.142;2022-10-17T15:31:30;6.82;;;4.40;;
12308;SDS011;6217;48.150;17.142;2022-10-17T15:35:36;5.93;;;4.13;;
12308;SDS011;6217;48.150;17.142;2022-10-17T15:39:42;5.43;;;3.42;;
12308;SDS011;6217;48.150;17.142;2022-10-17T15:43:49;8.55;;;4.45;;
12308;SDS011;6217;48.150;17.142;2022-10-17T15:48:03;10.07;;;4.72;;
12308;SDS011;6217;48.150;17.142;2022-10-17T15:52:11;8.05;;;4.68;;
12308;SDS011;6217;48.150;17.142;2022-10-17T15:56:30;5.10;;;4.07;;
12308;SDS011;6217;48.150;17.142;2022-10-17T16:00:41;7.80;;;5.15;;
12308;SDS011;6217;48.150;17.142;2022-10-17T16:04:48;8.07;;;4.47;;
12308;SDS011;6217;48.150;17.142;2022-10-17T16:08:54;10.52;;;4.25;;
12308;SDS011;6217;48.150;17.142;2022-10-17T16:13:00;4.72;;;4.03;;
12308;SDS011;6217;48.150;17.142;2022-10-17T16:17:08;8.63;;;4.00;;
12308;SDS011;6217;48.150;17.142;2022-10-17T16:21:20;7.00;;;2.83;;
12308;SDS011;6217;48.150;17.142;2022-10-17T16:25:30;10.23;;;3.40;;
12308;SDS011;6217;48.150;17.142;2022-10-17T16:29:36;9.43;;;4.75;;
12308;SDS011;6217;48.150;17.142;2022-10-17T16:33:42;9.52;;;3.88;;
12308;SDS011;6217;48.150;17.142;2022-10-17T16:37:48;5.50;;;3.25;;
12308;SDS011;6217;48.150;17.142;2022-10-17T16:41:54;5.88;;;3.00;;
12308;SDS011;6217;48.150;17.142;2022-10-17T16:46:02;9.38;;;3.75;;
12308;SDS011;6217;48.150;17.142;2022-10-17T16:50:08;8.38;;;3.20;;
12308;SDS011;6217;48.150;17.142;2022-10-17T16:54:14;5.95;;;2.92;;
12308;SDS011;6217;48.150;17.142;2022-10-17T16:58:20;4.95;;;3.30;;
12308;SDS011;6217;48.150;17.142;2022-10-17T17:02:28;6.78;;;3.30;;
12308;SDS011;6217;48.150;17.142;2022-10-17T17:06:35;9.30;;;3.85;;
12308;SDS011;6217;48.150;17.142;2022-10-17T17:10:44;5.97;;;3.03;;
12308;SDS011;6217;48.150;17.142;2022-10-17T17:14:51;4.77;;;3.13;;
12308;SDS011;6217;48.150;17.142;2022-10-17T17:18:58;6.20;;;3.15;;
12308;SDS011;6217;48.150;17.142;2022-10-17T17:23:07;7.68;;;3.78;;
12308;SDS011;6217;48.150;17.142;2022-10-17T17:27:14;7.93;;;3.97;;
12308;SDS011;6217;48.150;17.142;2022-10-17T17:31:25;6.10;;;3.28;;
12308;SDS011;6217;48.150;17.142;2022-10-17T17:35:34;5.97;;;3.80;;
12308;SDS011;6217;48.150;17.142;2022-10-17T17:39:43;8.98;;;3.45;;
12308;SDS011;6217;48.150;17.142;2022-10-17T17:43:49;6.43;;;3.65;;
12308;SDS011;6217;48.150;17.142;2022-10-17T17:47:55;5.20;;;3.30;;
12308;SDS011;6217;48.150;17.142;2022-10-17T17:52:01;10.43;;;3.35;;
12308;SDS011;6217;48.150;17.142;2022-10-17T17:56:11;8.80;;;3.60;;
12308;SDS011;6217;48.150;17.142;2022-10-17T18:00:22;10.05;;;3.42;;
12308;SDS011;6217;48.150;17.142;2022-10-17T18:04:28;8.23;;;3.95;;
12308;SDS011;6217;48.150;17.142;2022-10-17T18:08:34;8.18;;;3.75;;
12308;SDS011;6217;48.150;17.142;2022-10-17T18:12:41;6.00;;;4.05;;
12308;SDS011;6217;48.150;17.142;2022-10-17T18:16:47;10.85;;;5.00;;
12308;SDS011;6217;48.150;17.142;2022-10-17T18:20:52;6.45;;;3.78;;
12308;SDS011;6217;48.150;17.142;2022-10-17T18:24:58;9.60;;;4.53;;
12308;SDS011;6217;48.150;17.142;2022-10-17T18:29:04;11.63;;;3.90;;
12308;SDS011;6217;48.150;17.142;2022-10-17T18:33:10;13.10;;;4.20;;
12308;SDS011;6217;48.150;17.142;2022-10-17T18:37:16;14.65;;;5.13;;
12308;SDS011;6217;48.150;17.142;2022-10-17T18:41:23;14.93;;;4.45;;
12308;SDS011;6217;48.150;17.142;2022-10-17T18:45:30;10.82;;;4.93;;
12308;SDS011;6217;48.150;17.142;2022-10-17T18:49:36;8.52;;;3.90;;
12308;SDS011;6217;48.150;17.142;2022-10-17T18:53:48;7.88;;;4.97;;
12308;SDS011;6217;48.150;17.142;2022-10-17T18:57:56;6.00;;;4.38;;
12308;SDS011;6217;48.150;17.142;2022-10-17T19:02:03;10.85;;;4.20;;
12308;SDS011;6217;48.150;17.142;2022-10-17T19:06:09;7.57;;;4.45;;
12308;SDS011;6217;48.150;17.142;2022-10-17T19:10:21;8.50;;;3.70;;
12308;SDS011;6217;48.150;17.142;2022-10-17T19:14:26;7.90;;;4.97;;
12308;SDS011;6217;48.150;17.142;2022-10-17T19:18:34;10.20;;;4.18;;
12308;SDS011;6217;48.150;17.142;2022-10-17T19:22:40;10.32;;;4.32;;
12308;SDS011;6217;48.150;17.142;2022-10-17T19:26:47;7.93;;;4.70;;
12308;SDS011;6217;48.150;17.142;2022-10-17T19:30:54;11.50;;;5.45;;
12308;SDS011;6217;48.150;17.142;2022-10-17T19:35:00;14.45;;;5.45;;
12308;SDS011;6217;48.150;17.142;2022-10-17T19:39:08;7.93;;;5.07;;
12308;SDS011;6217;48.150;17.142;2022-10-17T19:43:22;12.55;;;5.40;;
12308;SDS011;6217;48.150;17.142;2022-10-17T19:47:28;7.50;;;4.57;;
12308;SDS011;6217;48.150;17.142;2022-10-17T19:51:34;7.13;;;5.30;;
12308;SDS011;6217;48.150;17.142;2022-10-17T19:55:39;14.10;;;4.57;;
12308;SDS011;6217;48.150;17.142;2022-10-17T19:59:45;10.15;;;5.13;;
12308;SDS011;6217;48.150;17.142;2022-10-17T20:03:51;9.23;;;3.80;;
12308;SDS011;6217;48.150;17.142;2022-10-17T20:07:58;9.68;;;4.22;;
12308;SDS011;6217;48.150;17.142;2022-10-17T20:12:04;7.43;;;3.80;;
12308;SDS011;6217;48.150;17.142;2022-10-17T20:16:11;11.73;;;5.15;;
12308;SDS011;6217;48.150;17.142;2022-10-17T20:20:20;11.10;;;4.63;;
12308;SDS011;6217;48.150;17.142;2022-10-17T20:24:26;7.63;;;4.32;;
12308;SDS011;6217;48.150;17.142;2022-10-17T20:28:32;7.03;;;3.75;;
12308;SDS011;6217;48.150;17.142;2022-10-17T20:32:38;6.95;;;3.80;;
12308;SDS011;6217;48.150;17.142;2022-10-17T20:36:44;6.40;;;3.70;;
12308;SDS011;6217;48.150;17.142;2022-10-17T20:40:50;11.80;;;4.10;;
12308;SDS011;6217;48.150;17.142;2022-10-17T20:44:56;9.60;;;4.25;;
12308;SDS011;6217;48.150;17.142;2022-10-17T20:49:05;6.95;;;3.63;;
12308;SDS011;6217;48.150;17.142;2022-10-17T20:53:12;5.50;;;3.58;;
12308;SDS011;6217;48.150;17.142;2022-10-17T20:57:19;6.30;;;4.47;;
12308;SDS011;6217;48.150;17.142;2022-10-17T21:01:25;5.57;;;5.00;;
12308;SDS011;6217;48.150;17.142;2022-10-17T21:05:36;9.68;;;3.90;;
12308;SDS011;6217;48.150;17.142;2022-10-17T21:09:43;7.72;;;4.18;;
12308;SDS011;6217;48.150;17.142;2022-10-17T21:13:57;6.97;;;4.35;;
12308;SDS011;6217;48.150;17.142;2022-10-17T21:18:05;11.52;;;6.07;;
12308;SDS011;6217;48.150;17.142;2022-10-17T21:22:11;10.70;;;5.00;;
12308;SDS011;6217;48.150;17.142;2022-10-17T21:26:17;9.02;;;4.70;;
12308;SDS011;6217;48.150;17.142;2022-10-17T21:30:23;6.82;;;4.93;;
12308;SDS011;6217;48.150;17.142;2022-10-17T21:34:29;10.55;;;6.80;;
12308;SDS011;6217;48.150;17.142;2022-10-17T21:38:36;8.30;;;6.60;;
12308;SDS011;6217;48.150;17.142;2022-10-17T21:42:42;12.23;;;5.80;;
12308;SDS011;6217;48.150;17.142;2022-10-17T21:46:48;8.85;;;5.65;;
12308;SDS011;6217;48.150;17.142;2022-10-17T21:50:55;8.30;;;6.32;;
12308;SDS011;6217;48.150;17.142;2022-10-17T21:55:03;11.43;;;5.85;;
12308;SDS011;6217;48.150;17.142;2022-10-17T21:59:09;14.60;;;6.28;;
12308;SDS011;6217;48.150;17.142;2022-10-17T22:03:15;12.15;;;6.43;;
12308;SDS011;6217;48.150;17.142;2022-10-17T22:07:21;13.05;;;6.95;;
12308;SDS011;6217;48.150;17.142;2022-10-17T22:11:28;10.05;;;6.25;;
12308;SDS011;6217;48.150;17.142;2022-10-17T22:15:38;11.17;;;4.63;;
12308;SDS011;6217;48.150;17.142;2022-10-17T22:19:43;11.70;;;5.93;;
12308;SDS011;6217;48.150;17.142;2022-10-17T22:23:54;9.23;;;6.10;;
12308;SDS011;6217;48.150;17.142;2022-10-17T22:28:05;9.48;;;6.63;;
12308;SDS011;6217;48.150;17.142;2022-10-17T22:32:11;7.90;;;5.15;;
12308;SDS011;6217;48.150;17.142;2022-10-17T22:36:17;10.55;;;4.90;;
12308;SDS011;6217;48.150;17.142;2022-10-17T22:40:23;10.00;;;5.72;;
12308;SDS011;6217;48.150;17.142;2022-10-17T22:44:29;8.02;;;4.78;;
12308;SDS011;6217;48.150;17.142;2022-10-17T22:48:35;6.60;;;5.45;;
12308;SDS011;6217;48.150;17.142;2022-10-17T22:52:41;7.63;;;5.30;;
12308;SDS011;6217;48.150;17.142;2022-10-17T22:56:47;9.82;;;6.18;;
12308;SDS011;6217;48.150;17.142;2022-10-17T23:00:53;10.32;;;6.60;;
12308;SDS011;6217;48.150;17.142;2022-10-17T23:04:59;15.05;;;6.97;;
12308;SDS011;6217;48.150;17.142;2022-10-17T23:09:05;11.18;;;6.80;;
12308;SDS011;6217;48.150;17.142;2022-10-17T23:13:11;11.75;;;7.30;;
12308;SDS011;6217;48.150;17.142;2022-10-17T23:17:18;15.18;;;7.05;;
12308;SDS011;6217;48.150;17.142;2022-10-17T23:21:23;11.32;;;7.22;;
12308;SDS011;6217;48.150;17.142;2022-10-17T23:25:29;13.27;;;7.57;;
12308;SDS011;6217;48.150;17.142;2022-10-17T23:29:37;17.77;;;7.43;;
12308;SDS011;6217;48.150;17.142;2022-10-17T23:33:44;13.73;;;8.45;;
12308;SDS011;6217;48.150;17.142;2022-10-17T23:37:52;9.02;;;7.20;;
12308;SDS011;6217;48.150;17.142;2022-10-17T23:41:57;12.10;;;8.15;;
12308;SDS011;6217;48.150;17.142;2022-10-17T23:46:03;11.88;;;8.70;;
12308;SDS011;6217;48.150;17.142;2022-10-17T23:50:10;12.45;;;6.70;;
12308;SDS011;6217;48.150;17.142;2022-10-17T23:54:16;12.63;;;7.85;;
12308;SDS011;6217;48.150;17.142;2022-10-17T23:58:22;26.67;;;7.55;;
